Time;durP1;ratioP1;P1;durP2;ratioP2;P2;SDS_P1;SDS_P2;PMS_P1;PMS_P2;Temp;Humidity;BMP_temperature;BMP_pressure;BME280_temperature;BME280_humidity;BME280_pressure;Samples;Min_cycle;Max_cycle;Signal;HPM_P1;HPM_P2
2022/04/04 00:00:16;;;;;;;;;;;3.00;82.80;;;;;;2047635;28;19922;-91
2022/04/04 00:01:35;;;;;;;;;;;2.90;82.70;;;;;;2053675;28;20276;-90
2022/04/04 00:02:54;;;;;;;;;;;3.00;82.80;;;;;;2049237;29;19922;-89
2022/04/04 00:04:14;;;;;;;;;;;2.90;82.70;;;;;;2054691;28;20005;-90
2022/04/04 00:05:33;;;;;;;;;;;2.90;82.70;;;;;;2049160;29;19914;-92
2022/04/04 00:06:53;;;;;;;;;;;2.90;82.70;;;;;;2042765;29;19919;-91
2022/04/04 00:08:12;;;;;;;;;;;3.00;82.80;;;;;;2058351;28;20364;-91
2022/04/04 00:09:31;;;;;;;;;;;2.90;82.80;;;;;;2049927;29;19962;-91
2022/04/04 00:10:50;;;;;;;;;;;2.90;82.70;;;;;;2054695;28;19906;-92
2022/04/04 00:12:10;;;;;;;;;;;2.90;82.80;;;;;;2064089;28;19917;-92
2022/04/04 00:13:29;;;;;;;;;;;2.90;82.80;;;;;;2049802;29;19918;-92
2022/04/04 00:14:48;;;;;;;;;;;2.90;82.90;;;;;;2052099;28;19914;-91
2022/04/04 00:16:07;;;;;;;;;;;2.90;82.90;;;;;;2065807;28;19905;-92
2022/04/04 00:17:27;;;;;;;;;;;2.90;82.90;;;;;;2060837;28;19910;-91
2022/04/04 00:18:46;;;;;;;;;;;2.90;82.90;;;;;;2057200;28;19910;-91
2022/04/04 00:20:07;;;;;;;;;;;2.90;83.00;;;;;;2050823;28;19923;-91
2022/04/04 00:21:26;;;;;;;;;;;2.80;82.90;;;;;;2050063;28;20004;-91
2022/04/04 00:22:46;;;;;;;;;;;2.80;83.00;;;;;;2052188;28;20004;-91
2022/04/04 00:24:05;;;;;;;;;;;2.80;83.00;;;;;;2038820;29;19915;-92
2022/04/04 00:25:24;;;;;;;;;;;2.80;83.00;;;;;;2050570;28;19914;-92
2022/04/04 00:26:44;;;;;;;;;;;2.80;83.10;;;;;;2045087;29;19950;-92
2022/04/04 00:28:03;;;;;;;;;;;2.80;83.10;;;;;;2047057;29;19906;-92
2022/04/04 00:29:22;;;;;;;;;;;2.80;83.10;;;;;;2048987;29;19949;-91
2022/04/04 00:30:42;;;;;;;;;;;2.80;83.10;;;;;;2054492;28;20356;-91
2022/04/04 00:32:01;;;;;;;;;;;2.80;83.10;;;;;;2054733;28;19910;-91
2022/04/04 00:33:20;;;;;;;;;;;2.80;83.10;;;;;;2049431;29;20393;-91
2022/04/04 00:34:40;;;;;;;;;;;2.80;83.10;;;;;;2049660;28;19918;-92
2022/04/04 00:35:59;;;;;;;;;;;2.70;83.10;;;;;;2044958;29;19922;-91
2022/04/04 00:37:18;;;;;;;;;;;2.80;83.20;;;;;;2050869;28;19914;-91
2022/04/04 00:38:37;;;;;;;;;;;2.70;83.20;;;;;;2049591;29;19918;-90
2022/04/04 00:39:56;;;;;;;;;;;2.70;83.30;;;;;;2041679;29;19918;-91
2022/04/04 00:41:15;;;;;;;;;;;2.70;83.30;;;;;;2047084;29;20353;-91
2022/04/04 00:42:34;;;;;;;;;;;2.70;83.30;;;;;;2050503;28;19910;-92
2022/04/04 00:43:54;;;;;;;;;;;2.70;83.30;;;;;;2055694;28;19918;-91
2022/04/04 00:45:13;;;;;;;;;;;2.70;83.30;;;;;;2057590;28;19938;-92
2022/04/04 00:46:32;;;;;;;;;;;2.70;83.30;;;;;;2055637;28;19910;-91
2022/04/04 00:47:52;;;;;;;;;;;2.70;83.30;;;;;;2054540;28;20008;-92
2022/04/04 00:49:11;;;;;;;;;;;2.70;83.30;;;;;;2048933;29;19954;-91
2022/04/04 00:50:30;;;;;;;;;;;2.60;83.30;;;;;;2054947;28;20336;-91
2022/04/04 00:51:50;;;;;;;;;;;2.70;83.40;;;;;;2057069;28;20004;-91
2022/04/04 00:53:09;;;;;;;;;;;2.70;83.40;;;;;;2056802;28;19914;-91
2022/04/04 00:54:28;;;;;;;;;;;2.70;83.40;;;;;;2056390;28;19914;-90
2022/04/04 00:55:48;;;;;;;;;;;2.60;83.30;;;;;;2057432;28;19910;-91
2022/04/04 00:57:07;;;;;;;;;;;2.70;83.40;;;;;;2049001;28;19914;-91
2022/04/04 00:58:27;;;;;;;;;;;2.60;83.40;;;;;;2054551;28;19914;-91
2022/04/04 00:59:47;;;;;;;;;;;2.70;83.50;;;;;;2058750;28;19914;-91
2022/04/04 01:01:06;;;;;;;;;;;2.70;83.40;;;;;;2057562;28;19906;-92
2022/04/04 01:02:25;;;;;;;;;;;2.60;83.50;;;;;;2057506;28;19906;-91
2022/04/04 01:03:45;;;;;;;;;;;2.60;83.40;;;;;;2054240;28;19914;-91
2022/04/04 01:05:04;;;;;;;;;;;2.60;83.40;;;;;;2055735;28;19966;-92
2022/04/04 01:06:23;;;;;;;;;;;2.60;83.40;;;;;;2049073;28;19914;-91
2022/04/04 01:07:42;;;;;;;;;;;2.60;83.50;;;;;;2049738;29;20393;-91
2022/04/04 01:09:02;;;;;;;;;;;2.60;83.50;;;;;;2054437;28;19922;-91
2022/04/04 01:10:21;;;;;;;;;;;2.60;83.50;;;;;;2044332;29;19914;-91
2022/04/04 01:11:59;;;;;;;;;;;2.60;83.50;;;;;;2049430;29;19922;-91
2022/04/04 01:13:18;;;;;;;;;;;2.60;83.50;;;;;;2051615;28;19953;-91
2022/04/04 01:14:38;;;;;;;;;;;2.60;83.50;;;;;;2054384;28;19914;-91
2022/04/04 01:15:57;;;;;;;;;;;2.60;83.50;;;;;;2053352;28;19918;-91
2022/04/04 01:17:18;;;;;;;;;;;2.60;83.50;;;;;;2047145;29;20001;-91
2022/04/04 01:18:37;;;;;;;;;;;2.60;83.50;;;;;;2038628;29;20342;-91
2022/04/04 01:19:56;;;;;;;;;;;2.60;83.50;;;;;;2047497;28;19914;-91
2022/04/04 01:21:20;;;;;;;;;;;2.60;83.50;;;;;;2057601;28;19906;-91
2022/04/04 01:22:40;;;;;;;;;;;2.60;83.60;;;;;;2057330;28;20017;-91
2022/04/04 01:24:00;;;;;;;;;;;2.60;83.50;;;;;;2058700;28;19922;-91
2022/04/04 01:25:23;;;;;;;;;;;2.60;83.60;;;;;;2058453;28;20364;-91
2022/04/04 01:26:46;;;;;;;;;;;2.60;83.60;;;;;;2057366;28;19953;-91
2022/04/04 01:28:05;;;;;;;;;;;2.60;83.60;;;;;;2056462;28;19957;-91
2022/04/04 01:29:24;;;;;;;;;;;2.60;83.50;;;;;;2054398;28;19914;-91
2022/04/04 01:30:48;;;;;;;;;;;2.60;83.50;;;;;;2053702;28;19913;-91
2022/04/04 01:32:08;;;;;;;;;;;2.60;83.60;;;;;;2061694;28;19910;-91
2022/04/04 01:33:27;;;;;;;;;;;2.60;83.50;;;;;;2057379;28;19909;-92
2022/04/04 01:34:46;;;;;;;;;;;2.60;83.60;;;;;;2047758;29;19914;-91
2022/04/04 01:36:06;;;;;;;;;;;2.60;83.60;;;;;;2057638;28;19910;-91
2022/04/04 01:37:25;;;;;;;;;;;2.60;83.60;;;;;;2057796;28;19914;-91
2022/04/04 01:38:44;;;;;;;;;;;2.60;83.60;;;;;;2051992;28;19911;-91
2022/04/04 01:40:06;;;;;;;;;;;2.60;83.60;;;;;;2055436;28;19914;-91
2022/04/04 01:41:25;;;;;;;;;;;2.60;83.70;;;;;;2054058;28;19906;-90
2022/04/04 01:42:48;;;;;;;;;;;2.60;83.60;;;;;;2060884;28;20385;-91
2022/04/04 01:44:08;;;;;;;;;;;2.60;83.70;;;;;;2062077;28;19914;-91
2022/04/04 01:47:05;;;;;;;;;;;2.60;83.70;;;;;;2054778;28;19911;-91
2022/04/04 01:48:24;;;;;;;;;;;2.60;83.70;;;;;;2052217;29;19914;-91
2022/04/04 01:49:43;;;;;;;;;;;2.60;83.70;;;;;;2061917;28;20340;-90
2022/04/04 01:51:03;;;;;;;;;;;2.60;83.60;;;;;;2061572;28;19909;-91
2022/04/04 01:52:22;;;;;;;;;;;2.60;83.60;;;;;;2060221;28;19910;-92
2022/04/04 01:53:42;;;;;;;;;;;2.60;83.60;;;;;;2059749;28;19914;-90
2022/04/04 01:55:01;;;;;;;;;;;2.60;83.60;;;;;;2059602;28;19914;-91
2022/04/04 01:56:21;;;;;;;;;;;2.60;83.60;;;;;;2057925;28;19965;-91
2022/04/04 01:57:40;;;;;;;;;;;2.60;83.70;;;;;;2050652;29;19911;-91
2022/04/04 01:59:00;;;;;;;;;;;2.60;83.70;;;;;;2051067;29;19911;-91
2022/04/04 02:00:20;;;;;;;;;;;2.60;83.70;;;;;;2051231;29;19918;-90
2022/04/04 02:01:39;;;;;;;;;;;2.60;83.70;;;;;;2050671;29;19918;-91
2022/04/04 02:02:58;;;;;;;;;;;2.60;83.70;;;;;;2049568;29;19930;-91
2022/04/04 02:04:17;;;;;;;;;;;2.60;83.70;;;;;;2056110;28;20379;-91
2022/04/04 02:05:36;;;;;;;;;;;2.60;83.70;;;;;;2062041;28;19914;-90
2022/04/04 02:06:56;;;;;;;;;;;2.60;83.70;;;;;;2057468;28;19910;-92
2022/04/04 02:08:15;;;;;;;;;;;2.60;83.70;;;;;;2051842;28;19958;-91
2022/04/04 02:09:34;;;;;;;;;;;2.60;83.80;;;;;;2051802;28;19918;-91
2022/04/04 02:10:53;;;;;;;;;;;2.60;83.70;;;;;;2053924;28;19914;-90
2022/04/04 02:12:13;;;;;;;;;;;2.60;83.80;;;;;;2058961;28;19918;-91
2022/04/04 02:13:32;;;;;;;;;;;2.70;83.90;;;;;;2056620;28;20396;-90
2022/04/04 02:14:52;;;;;;;;;;;2.70;83.80;;;;;;2050462;29;19944;-91
2022/04/04 02:16:11;;;;;;;;;;;2.60;83.70;;;;;;2053014;28;20004;-91
2022/04/04 02:17:30;;;;;;;;;;;2.70;83.80;;;;;;2046840;29;19914;-91
2022/04/04 02:18:49;;;;;;;;;;;2.70;83.70;;;;;;2055392;28;19914;-91
2022/04/04 02:20:09;;;;;;;;;;;2.70;83.80;;;;;;2055179;28;20301;-91
2022/04/04 02:21:28;;;;;;;;;;;2.70;83.80;;;;;;2054546;28;19914;-91
2022/04/04 02:22:48;;;;;;;;;;;2.70;83.70;;;;;;2055320;28;19914;-91
2022/04/04 02:24:07;;;;;;;;;;;2.70;83.70;;;;;;2064087;28;20610;-91
2022/04/04 02:25:27;;;;;;;;;;;2.70;83.70;;;;;;2050591;29;19942;-91
2022/04/04 02:26:46;;;;;;;;;;;2.70;83.70;;;;;;2059305;28;19918;-90
2022/04/04 02:28:05;;;;;;;;;;;2.70;84.00;;;;;;2058253;28;20022;-91
2022/04/04 02:29:25;;;;;;;;;;;2.70;83.70;;;;;;2063701;28;19913;-91
2022/04/04 02:30:44;;;;;;;;;;;2.70;83.80;;;;;;2055877;28;20361;-91
2022/04/04 02:32:04;;;;;;;;;;;2.70;83.70;;;;;;2062188;28;20004;-91
2022/04/04 02:33:23;;;;;;;;;;;2.70;83.70;;;;;;2058502;28;19914;-91
2022/04/04 02:34:42;;;;;;;;;;;2.70;83.60;;;;;;2063237;28;19918;-92
2022/04/04 02:36:02;;;;;;;;;;;2.80;83.70;;;;;;2053520;28;19914;-91
2022/04/04 02:37:21;;;;;;;;;;;2.80;83.80;;;;;;2060907;28;19914;-91
2022/04/04 02:38:40;;;;;;;;;;;2.80;83.70;;;;;;2055734;28;20000;-91
2022/04/04 02:40:00;;;;;;;;;;;2.80;83.70;;;;;;2059835;28;19917;-92
2022/04/04 02:41:19;;;;;;;;;;;2.80;83.70;;;;;;2050550;28;19922;-92
2022/04/04 02:42:38;;;;;;;;;;;2.80;83.70;;;;;;2047364;29;19910;-91
2022/04/04 02:43:57;;;;;;;;;;;2.80;83.70;;;;;;2055511;28;20001;-91
2022/04/04 02:45:17;;;;;;;;;;;2.80;83.70;;;;;;2050390;29;19910;-91
2022/04/04 02:46:36;;;;;;;;;;;2.80;83.80;;;;;;2053765;28;19913;-91
2022/04/04 02:47:55;;;;;;;;;;;2.80;83.80;;;;;;2050510;29;20301;-91
2022/04/04 02:49:14;;;;;;;;;;;2.80;83.80;;;;;;2042324;29;19961;-91
2022/04/04 02:50:34;;;;;;;;;;;2.80;83.90;;;;;;2044280;29;19910;-91
2022/04/04 02:51:54;;;;;;;;;;;2.80;83.80;;;;;;2047189;29;19946;-91
2022/04/04 02:53:14;;;;;;;;;;;2.80;83.90;;;;;;2046733;29;19910;-91
2022/04/04 02:54:33;;;;;;;;;;;2.80;83.90;;;;;;2044304;29;19914;-92
2022/04/04 02:57:30;;;;;;;;;;;2.80;83.90;;;;;;2064903;28;20506;-91
2022/04/04 02:58:49;;;;;;;;;;;2.80;83.90;;;;;;2053383;28;19918;-92
2022/04/04 03:00:09;;;;;;;;;;;2.80;83.90;;;;;;2055059;28;20458;-91
2022/04/04 03:01:28;;;;;;;;;;;2.80;83.90;;;;;;2050134;29;19914;-92
2022/04/04 03:02:48;;;;;;;;;;;2.80;83.80;;;;;;2055663;28;19910;-92
2022/04/04 03:04:07;;;;;;;;;;;2.80;83.80;;;;;;2065156;28;19918;-92
2022/04/04 03:05:26;;;;;;;;;;;2.80;83.80;;;;;;2060110;28;19910;-92
2022/04/04 03:06:46;;;;;;;;;;;2.90;83.80;;;;;;2063265;28;19918;-91
2022/04/04 03:08:05;;;;;;;;;;;2.80;83.90;;;;;;2065506;28;19913;-92
2022/04/04 03:09:24;;;;;;;;;;;2.90;83.90;;;;;;2057648;28;19914;-91
2022/04/04 03:10:44;;;;;;;;;;;2.90;83.90;;;;;;2046773;29;19910;-91
2022/04/04 03:12:05;;;;;;;;;;;2.90;83.90;;;;;;2054828;28;19922;-92
2022/04/04 03:13:24;;;;;;;;;;;2.90;83.80;;;;;;2058918;28;19918;-92
2022/04/04 03:14:44;;;;;;;;;;;2.90;83.80;;;;;;2058731;28;20396;-91
2022/04/04 03:16:04;;;;;;;;;;;2.90;83.80;;;;;;2064999;28;19910;-91
2022/04/04 03:17:23;;;;;;;;;;;2.90;83.90;;;;;;2058344;28;19914;-91
2022/04/04 03:18:42;;;;;;;;;;;2.90;84.10;;;;;;2058276;28;19914;-91
2022/04/04 03:20:02;;;;;;;;;;;2.90;84.20;;;;;;2057133;28;19914;-91
2022/04/04 03:21:21;;;;;;;;;;;2.90;83.90;;;;;;2044522;28;20359;-92
2022/04/04 03:22:42;;;;;;;;;;;2.90;84.00;;;;;;2012875;29;19922;-92
2022/04/04 03:24:01;;;;;;;;;;;2.90;83.90;;;;;;2028807;28;20634;-92
2022/04/04 03:25:20;;;;;;;;;;;3.00;84.00;;;;;;2025590;28;20328;-91
2022/04/04 03:26:39;;;;;;;;;;;3.00;84.00;;;;;;2031394;28;20174;-91
2022/04/04 03:27:59;;;;;;;;;;;3.00;84.00;;;;;;2067291;28;19906;-92
2022/04/04 03:29:18;;;;;;;;;;;3.00;84.00;;;;;;2053082;28;19915;-92
2022/04/04 03:30:37;;;;;;;;;;;3.00;84.00;;;;;;2053861;29;19910;-92
2022/04/04 03:31:58;;;;;;;;;;;3.00;84.20;;;;;;2057519;28;19934;-91
2022/04/04 03:33:18;;;;;;;;;;;3.00;84.30;;;;;;2057627;28;19910;-91
2022/04/04 03:34:37;;;;;;;;;;;3.00;84.40;;;;;;2054604;28;19914;-91
2022/04/04 03:35:58;;;;;;;;;;;3.00;84.20;;;;;;2046555;28;19918;-91
2022/04/04 03:37:17;;;;;;;;;;;3.00;84.20;;;;;;2046563;29;19914;-91
2022/04/04 03:38:36;;;;;;;;;;;3.00;84.10;;;;;;2059312;28;19953;-91
2022/04/04 03:39:55;;;;;;;;;;;3.00;84.10;;;;;;2049840;29;19914;-91
2022/04/04 03:41:15;;;;;;;;;;;3.00;84.00;;;;;;2050413;29;19918;-91
2022/04/04 03:42:36;;;;;;;;;;;3.00;84.10;;;;;;2043341;29;19910;-91
2022/04/04 03:43:56;;;;;;;;;;;3.00;84.20;;;;;;2046962;29;20417;-91
2022/04/04 03:45:16;;;;;;;;;;;3.00;84.10;;;;;;2050852;28;19910;-91
2022/04/04 03:46:35;;;;;;;;;;;3.00;84.10;;;;;;2056390;28;19910;-92
2022/04/04 03:47:55;;;;;;;;;;;3.00;84.10;;;;;;2047380;28;19919;-91
2022/04/04 03:49:13;;;;;;;;;;;3.00;84.10;;;;;;2058935;28;19914;-91
2022/04/04 03:50:32;;;;;;;;;;;3.00;84.30;;;;;;2052994;28;19909;-91
2022/04/04 03:51:52;;;;;;;;;;;3.00;84.10;;;;;;2054404;28;19910;-91
2022/04/04 03:53:11;;;;;;;;;;;3.00;84.20;;;;;;2046648;29;19950;-92
2022/04/04 03:54:31;;;;;;;;;;;3.00;84.20;;;;;;2054487;28;19920;-91
2022/04/04 03:55:50;;;;;;;;;;;3.00;84.20;;;;;;2050002;28;20008;-92
2022/04/04 03:57:09;;;;;;;;;;;3.00;84.20;;;;;;2056055;28;19905;-91
2022/04/04 03:58:29;;;;;;;;;;;3.00;84.20;;;;;;2066107;28;19913;-89
2022/04/04 03:59:48;;;;;;;;;;;3.00;84.30;;;;;;2062097;28;20353;-89
2022/04/04 04:01:07;;;;;;;;;;;3.00;84.30;;;;;;2049779;29;20333;-92
2022/04/04 04:02:27;;;;;;;;;;;3.00;84.30;;;;;;2055329;28;19910;-91
2022/04/04 04:03:46;;;;;;;;;;;3.00;84.20;;;;;;2057734;28;19910;-91
2022/04/04 04:05:05;;;;;;;;;;;3.00;84.30;;;;;;2059803;28;19910;-91
2022/04/04 04:06:24;;;;;;;;;;;3.00;84.20;;;;;;2057826;28;19961;-90
2022/04/04 04:07:44;;;;;;;;;;;3.00;84.20;;;;;;2050563;28;19914;-91
2022/04/04 04:09:03;;;;;;;;;;;3.00;84.80;;;;;;2054742;28;19914;-92
2022/04/04 04:10:22;;;;;;;;;;;3.10;84.20;;;;;;2064949;28;19913;-91
2022/04/04 04:11:41;;;;;;;;;;;3.10;84.10;;;;;;2012901;28;1296165;-91
2022/04/04 04:13:05;;;;;;;;;;;3.10;84.20;;;;;;2054304;28;20309;-91
2022/04/04 04:14:25;;;;;;;;;;;3.10;84.20;;;;;;2050654;28;19914;-91
2022/04/04 04:15:44;;;;;;;;;;;3.10;84.20;;;;;;2057924;28;20400;-91
2022/04/04 04:17:03;;;;;;;;;;;3.10;84.10;;;;;;2045033;29;19911;-91
2022/04/04 04:18:22;;;;;;;;;;;3.10;84.10;;;;;;2051954;28;19910;-89
2022/04/04 04:21:20;;;;;;;;;;;3.10;84.10;;;;;;2055969;28;19925;-91
2022/04/04 04:22:39;;;;;;;;;;;3.20;84.30;;;;;;2056998;28;19910;-91
2022/04/04 04:23:58;;;;;;;;;;;3.10;84.40;;;;;;2047226;29;20009;-91
2022/04/04 04:25:18;;;;;;;;;;;3.20;84.20;;;;;;2043751;29;19926;-91
2022/04/04 04:26:37;;;;;;;;;;;3.20;84.30;;;;;;2050630;28;19914;-91
2022/04/04 04:27:59;;;;;;;;;;;3.20;84.40;;;;;;2041060;29;19911;-91
2022/04/04 04:29:19;;;;;;;;;;;3.20;84.30;;;;;;2047016;29;19915;-91
2022/04/04 04:30:38;;;;;;;;;;;3.20;84.20;;;;;;2046428;29;19918;-91
2022/04/04 04:31:57;;;;;;;;;;;3.20;84.20;;;;;;2051512;28;19922;-89
2022/04/04 04:33:17;;;;;;;;;;;3.20;84.30;;;;;;2053648;28;19910;-91
2022/04/04 04:34:36;;;;;;;;;;;3.20;84.30;;;;;;2045857;29;19926;-91
2022/04/04 04:35:57;;;;;;;;;;;3.20;84.30;;;;;;2051684;28;20008;-92
2022/04/04 04:37:16;;;;;;;;;;;3.20;84.50;;;;;;2054016;28;20288;-91
2022/04/04 04:38:36;;;;;;;;;;;3.20;84.50;;;;;;2042395;29;19914;-92
2022/04/04 04:39:55;;;;;;;;;;;3.20;84.40;;;;;;2045476;29;19918;-92
2022/04/04 04:41:14;;;;;;;;;;;3.30;84.50;;;;;;2047148;28;20013;-90
2022/04/04 04:42:34;;;;;;;;;;;3.30;84.40;;;;;;2049310;29;20333;-91
2022/04/04 04:43:53;;;;;;;;;;;3.30;84.30;;;;;;2051289;28;19918;-92
2022/04/04 04:45:13;;;;;;;;;;;3.30;84.30;;;;;;2045524;29;20301;-91
2022/04/04 04:46:35;;;;;;;;;;;3.30;84.30;;;;;;2051635;28;19906;-90
2022/04/04 04:47:55;;;;;;;;;;;3.30;84.20;;;;;;2055958;28;19914;-92
2022/04/04 04:49:15;;;;;;;;;;;3.30;84.30;;;;;;2052940;28;19915;-91
2022/04/04 04:50:34;;;;;;;;;;;3.30;84.30;;;;;;2054251;28;19989;-91
2022/04/04 04:51:54;;;;;;;;;;;3.40;84.30;;;;;;2054113;28;20304;-91
2022/04/04 04:53:13;;;;;;;;;;;3.40;84.40;;;;;;2057796;28;19906;-91
2022/04/04 04:54:32;;;;;;;;;;;3.30;84.20;;;;;;2058010;28;20353;-92
2022/04/04 04:55:51;;;;;;;;;;;3.40;84.30;;;;;;2049185;29;19914;-91
2022/04/04 04:57:11;;;;;;;;;;;3.40;84.30;;;;;;2052343;28;20365;-91
2022/04/04 04:58:30;;;;;;;;;;;3.40;84.20;;;;;;2051629;28;19914;-90
2022/04/04 04:59:49;;;;;;;;;;;3.50;84.30;;;;;;2056558;28;19918;-92
2022/04/04 05:01:08;;;;;;;;;;;3.50;84.30;;;;;;2047008;29;19914;-90
2022/04/04 05:02:28;;;;;;;;;;;3.50;84.30;;;;;;2055154;28;19910;-90
2022/04/04 05:03:49;;;;;;;;;;;3.50;84.30;;;;;;2058144;28;19914;-91
2022/04/04 05:05:08;;;;;;;;;;;3.50;84.30;;;;;;2049621;29;19923;-88
2022/04/04 05:06:28;;;;;;;;;;;3.50;84.40;;;;;;2054052;28;19949;-89
2022/04/04 05:07:47;;;;;;;;;;;3.60;84.30;;;;;;2050531;29;19915;-88
2022/04/04 05:09:06;;;;;;;;;;;3.60;84.20;;;;;;2055577;28;19914;-88
2022/04/04 05:10:26;;;;;;;;;;;3.60;84.30;;;;;;2059186;28;19910;-88
2022/04/04 05:11:45;;;;;;;;;;;3.60;84.20;;;;;;2065935;28;20012;-88
2022/04/04 05:13:05;;;;;;;;;;;3.60;84.20;;;;;;2059029;28;19914;-88
2022/04/04 05:14:24;;;;;;;;;;;3.60;84.30;;;;;;2053989;28;20319;-88
2022/04/04 05:15:44;;;;;;;;;;;3.60;84.30;;;;;;2063952;28;19909;-88
2022/04/04 05:17:04;;;;;;;;;;;3.70;84.40;;;;;;2058985;28;19906;-88
2022/04/04 05:18:24;;;;;;;;;;;3.70;84.20;;;;;;2063406;28;19970;-87
2022/04/04 05:19:43;;;;;;;;;;;3.70;84.20;;;;;;2067728;28;20347;-88
2022/04/04 05:21:03;;;;;;;;;;;3.70;84.20;;;;;;2068054;28;19906;-87
2022/04/04 05:22:22;;;;;;;;;;;3.70;84.10;;;;;;2067216;28;19906;-87
2022/04/04 05:23:42;;;;;;;;;;;3.80;84.20;;;;;;2063494;28;20012;-87
2022/04/04 05:25:01;;;;;;;;;;;3.80;84.10;;;;;;2069875;28;19914;-90
2022/04/04 05:26:20;;;;;;;;;;;3.80;84.10;;;;;;2067131;28;19909;-90
2022/04/04 05:27:40;;;;;;;;;;;3.80;84.10;;;;;;2059929;28;19922;-89
2022/04/04 05:28:59;;;;;;;;;;;3.90;84.00;;;;;;2059667;28;19909;-90
2022/04/04 05:30:18;;;;;;;;;;;3.90;84.30;;;;;;2058248;28;20005;-90
2022/04/04 05:31:38;;;;;;;;;;;3.90;84.10;;;;;;2054994;28;19997;-89
2022/04/04 05:32:57;;;;;;;;;;;3.90;84.20;;;;;;2044128;28;20033;-89
2022/04/04 05:34:16;;;;;;;;;;;4.00;84.00;;;;;;2043698;28;20370;-88
2022/04/04 05:35:36;;;;;;;;;;;4.00;84.10;;;;;;2057650;28;20022;-89
2022/04/04 05:36:55;;;;;;;;;;;4.00;84.00;;;;;;2055626;28;19914;-89
2022/04/04 05:38:15;;;;;;;;;;;4.00;84.10;;;;;;2060592;28;19992;-88
2022/04/04 05:39:34;;;;;;;;;;;4.00;84.00;;;;;;2051465;28;19996;-89
2022/04/04 05:40:53;;;;;;;;;;;4.10;84.00;;;;;;2052217;28;19914;-90
2022/04/04 05:42:12;;;;;;;;;;;4.10;84.00;;;;;;2063915;28;19945;-91
2022/04/04 05:43:31;;;;;;;;;;;4.10;84.00;;;;;;2051967;29;19918;-89
2022/04/04 05:44:50;;;;;;;;;;;4.10;83.90;;;;;;2052551;28;20349;-91
2022/04/04 05:46:13;;;;;;;;;;;4.20;83.90;;;;;;2066143;28;19918;-90
2022/04/04 05:47:33;;;;;;;;;;;4.20;83.90;;;;;;2066331;28;20300;-91
2022/04/04 05:48:52;;;;;;;;;;;4.20;83.90;;;;;;2051323;28;19914;-89
2022/04/04 05:50:11;;;;;;;;;;;4.20;83.80;;;;;;2046445;29;19919;-90
2022/04/04 05:51:31;;;;;;;;;;;4.20;83.70;;;;;;2060559;28;19913;-90
2022/04/04 05:52:50;;;;;;;;;;;4.20;83.80;;;;;;2042769;29;19914;-90
2022/04/04 05:54:10;;;;;;;;;;;4.30;83.70;;;;;;2044431;29;19911;-90
2022/04/04 05:55:30;;;;;;;;;;;4.30;83.90;;;;;;2055084;28;19957;-90
2022/04/04 05:56:50;;;;;;;;;;;4.30;83.80;;;;;;2039696;29;19918;-90
2022/04/04 05:58:09;;;;;;;;;;;4.40;83.70;;;;;;2044556;29;20404;-90
2022/04/04 05:59:28;;;;;;;;;;;4.40;83.80;;;;;;2050419;29;19914;-91
2022/04/04 06:00:48;;;;;;;;;;;4.40;83.80;;;;;;2058162;28;19918;-90
2022/04/04 06:02:07;;;;;;;;;;;4.40;83.70;;;;;;2055085;28;19915;-90
2022/04/04 06:03:26;;;;;;;;;;;4.40;83.70;;;;;;2055856;28;19946;-90
2022/04/04 06:04:46;;;;;;;;;;;4.40;83.70;;;;;;2058966;28;19961;-90
2022/04/04 06:06:05;;;;;;;;;;;4.50;83.60;;;;;;2069362;28;19968;-90
2022/04/04 06:07:24;;;;;;;;;;;4.40;83.50;;;;;;2053300;29;19914;-91
2022/04/04 06:08:44;;;;;;;;;;;4.50;83.60;;;;;;2042925;29;19910;-91
2022/04/04 06:10:04;;;;;;;;;;;4.50;83.60;;;;;;2046196;29;19910;-90
2022/04/04 06:11:24;;;;;;;;;;;4.50;83.40;;;;;;2047738;29;19915;-90
2022/04/04 06:12:46;;;;;;;;;;;4.50;83.50;;;;;;2063714;28;19922;-90
2022/04/04 06:14:05;;;;;;;;;;;4.60;83.60;;;;;;2064035;28;19905;-90
2022/04/04 06:15:25;;;;;;;;;;;4.60;83.50;;;;;;2067386;28;20342;-91
2022/04/04 06:16:44;;;;;;;;;;;4.60;83.40;;;;;;2061250;28;20013;-91
2022/04/04 06:18:04;;;;;;;;;;;4.60;83.40;;;;;;2057545;28;19910;-90
2022/04/04 06:19:23;;;;;;;;;;;4.60;83.40;;;;;;2058139;28;20393;-90
2022/04/04 06:20:42;;;;;;;;;;;4.70;83.50;;;;;;2041214;29;20339;-90
2022/04/04 06:22:03;;;;;;;;;;;4.70;83.50;;;;;;2047506;29;19910;-91
2022/04/04 06:23:22;;;;;;;;;;;4.70;83.40;;;;;;2049799;29;19918;-91
2022/04/04 06:24:41;;;;;;;;;;;4.70;83.30;;;;;;2047402;28;19906;-90
2022/04/04 06:26:01;;;;;;;;;;;4.80;83.20;;;;;;2053495;28;20364;-90
2022/04/04 06:27:20;;;;;;;;;;;4.80;83.10;;;;;;2063612;28;20411;-90
2022/04/04 06:28:39;;;;;;;;;;;4.80;83.10;;;;;;2058445;28;19910;-90
2022/04/04 06:29:58;;;;;;;;;;;4.90;83.00;;;;;;2063676;28;19906;-90
2022/04/04 06:31:17;;;;;;;;;;;4.90;83.10;;;;;;2056287;28;19922;-90
2022/04/04 06:32:39;;;;;;;;;;;4.90;82.90;;;;;;2053730;28;19914;-90
2022/04/04 06:33:58;;;;;;;;;;;5.00;82.90;;;;;;2057027;28;20365;-90
2022/04/04 06:35:18;;;;;;;;;;;5.00;82.90;;;;;;2062060;28;19910;-90
2022/04/04 06:36:38;;;;;;;;;;;5.00;82.70;;;;;;2058634;28;19918;-90
2022/04/04 06:38:00;;;;;;;;;;;5.00;82.70;;;;;;2055206;28;19910;-90
2022/04/04 06:39:19;;;;;;;;;;;5.10;82.50;;;;;;2056405;28;19992;-90
2022/04/04 06:40:38;;;;;;;;;;;5.10;82.50;;;;;;2064020;28;19949;-89
2022/04/04 06:41:58;;;;;;;;;;;5.20;82.40;;;;;;2058190;28;19910;-90
2022/04/04 06:43:17;;;;;;;;;;;5.20;82.30;;;;;;2049570;28;20397;-90
2022/04/04 06:44:37;;;;;;;;;;;5.20;82.30;;;;;;2058792;28;19910;-90
2022/04/04 06:45:56;;;;;;;;;;;5.20;82.20;;;;;;2055199;28;19950;-90
2022/04/04 06:47:15;;;;;;;;;;;5.30;82.30;;;;;;2047070;29;20377;-91
2022/04/04 06:48:34;;;;;;;;;;;5.30;82.20;;;;;;2061558;28;19913;-90
2022/04/04 06:49:54;;;;;;;;;;;5.30;82.00;;;;;;2059598;28;19910;-90
2022/04/04 06:51:13;;;;;;;;;;;5.30;81.90;;;;;;2050206;29;19919;-91
2022/04/04 06:52:32;;;;;;;;;;;5.40;81.80;;;;;;2053916;28;19914;-90
2022/04/04 06:53:51;;;;;;;;;;;5.40;81.80;;;;;;2054510;28;20008;-90
2022/04/04 06:55:11;;;;;;;;;;;5.40;81.70;;;;;;2049922;29;19918;-90
2022/04/04 06:56:31;;;;;;;;;;;5.40;81.50;;;;;;2048098;28;20017;-89
2022/04/04 06:57:51;;;;;;;;;;;5.50;81.60;;;;;;2062991;28;19910;-90
2022/04/04 06:59:10;;;;;;;;;;;5.50;81.30;;;;;;2047410;28;20353;-90
2022/04/04 07:00:30;;;;;;;;;;;5.50;81.30;;;;;;2042423;29;19918;-89
2022/04/04 07:01:50;;;;;;;;;;;5.50;81.30;;;;;;2057177;28;19918;-90
2022/04/04 07:03:09;;;;;;;;;;;5.50;81.30;;;;;;2065754;28;19918;-90
2022/04/04 07:04:29;;;;;;;;;;;5.50;81.30;;;;;;2053347;28;19914;-90
2022/04/04 07:05:48;;;;;;;;;;;5.50;81.20;;;;;;2054903;28;19924;-90
2022/04/04 07:07:08;;;;;;;;;;;5.60;81.20;;;;;;2052733;28;19914;-90
2022/04/04 07:08:28;;;;;;;;;;;5.60;81.20;;;;;;2055042;28;19931;-90
2022/04/04 07:09:47;;;;;;;;;;;5.60;81.30;;;;;;2061535;28;19909;-90
2022/04/04 07:11:10;;;;;;;;;;;5.70;81.10;;;;;;2058618;28;19917;-90
2022/04/04 07:12:29;;;;;;;;;;;5.70;81.10;;;;;;2049761;29;19922;-90
2022/04/04 07:13:49;;;;;;;;;;;5.70;80.90;;;;;;2050108;28;19914;-90
2022/04/04 07:15:10;;;;;;;;;;;5.80;80.90;;;;;;2053372;28;19922;-90
2022/04/04 07:16:29;;;;;;;;;;;5.80;80.80;;;;;;2058217;28;20020;-90
2022/04/04 07:17:48;;;;;;;;;;;5.80;80.80;;;;;;2053891;28;19918;-90
2022/04/04 07:19:12;;;;;;;;;;;5.80;80.80;;;;;;2059125;28;19914;-90
2022/04/04 07:20:31;;;;;;;;;;;5.90;80.70;;;;;;2055343;28;19914;-90
2022/04/04 07:21:51;;;;;;;;;;;5.90;80.60;;;;;;2048758;28;19914;-90
2022/04/04 07:23:10;;;;;;;;;;;5.90;80.50;;;;;;2054604;28;19917;-90
2022/04/04 07:24:29;;;;;;;;;;;5.90;80.60;;;;;;2044986;29;19915;-90
2022/04/04 07:25:49;;;;;;;;;;;6.00;80.50;;;;;;2051760;28;19906;-90
2022/04/04 07:27:08;;;;;;;;;;;6.00;80.80;;;;;;2053276;28;19910;-89
2022/04/04 07:28:27;;;;;;;;;;;6.00;80.50;;;;;;2045846;29;19911;-91
2022/04/04 07:29:46;;;;;;;;;;;6.00;80.40;;;;;;2053148;28;19918;-90
2022/04/04 07:31:09;;;;;;;;;;;6.00;80.40;;;;;;2044598;29;19914;-90
2022/04/04 07:32:28;;;;;;;;;;;6.10;80.50;;;;;;2054819;28;19922;-90
2022/04/04 07:33:47;;;;;;;;;;;6.10;80.50;;;;;;2056350;28;19918;-90
2022/04/04 07:35:11;;;;;;;;;;;6.10;80.50;;;;;;2055478;28;19910;-90
2022/04/04 07:36:30;;;;;;;;;;;6.10;80.50;;;;;;2039762;29;20001;-91
2022/04/04 07:37:50;;;;;;;;;;;6.10;80.50;;;;;;2039461;29;19919;-90
2022/04/04 07:39:09;;;;;;;;;;;6.20;80.50;;;;;;2041388;29;20306;-90
2022/04/04 07:40:30;;;;;;;;;;;6.20;80.50;;;;;;2043558;29;19948;-91
2022/04/04 07:41:49;;;;;;;;;;;6.20;80.60;;;;;;2051416;28;19919;-90
2022/04/04 07:43:08;;;;;;;;;;;6.20;80.60;;;;;;2049562;29;19919;-90
2022/04/04 07:44:28;;;;;;;;;;;6.20;80.70;;;;;;2054941;28;19906;-90
2022/04/04 07:45:47;;;;;;;;;;;6.20;80.70;;;;;;2056182;28;20341;-89
2022/04/04 07:47:06;;;;;;;;;;;6.20;80.90;;;;;;2050648;28;20350;-90
2022/04/04 07:48:26;;;;;;;;;;;6.20;81.00;;;;;;2033995;29;19911;-90
2022/04/04 07:49:45;;;;;;;;;;;6.20;81.20;;;;;;2051539;28;19910;-90
2022/04/04 07:51:04;;;;;;;;;;;6.20;81.50;;;;;;2054676;28;20352;-90
2022/04/04 07:52:25;;;;;;;;;;;6.20;81.40;;;;;;2038152;29;20385;-90
2022/04/04 07:53:45;;;;;;;;;;;6.10;81.60;;;;;;2036768;29;19915;-90
2022/04/04 07:55:05;;;;;;;;;;;6.10;81.80;;;;;;2052010;28;19910;-90